sensor_id;sensor_type;location;lat;lon;timestamp;P1;durP1;ratioP1;P2;durP2;ratioP2
11957;SDS011;6039;52.576;13.348;2023-10-13T00:01:27;8.40;;;3.47;;
11957;SDS011;6039;52.576;13.348;2023-10-13T00:06:33;5.67;;;3.27;;
11957;SDS011;6039;52.576;13.348;2023-10-13T00:11:40;9.43;;;3.47;;
11957;SDS011;6039;52.576;13.348;2023-10-13T00:16:47;8.87;;;3.60;;
11957;SDS011;6039;52.576;13.348;2023-10-13T00:22:07;9.20;;;3.80;;
11957;SDS011;6039;52.576;13.348;2023-10-13T00:27:13;7.87;;;3.63;;
11957;SDS011;6039;52.576;13.348;2023-10-13T00:32:33;6.67;;;3.73;;
11957;SDS011;6039;52.576;13.348;2023-10-13T00:37:42;7.77;;;3.60;;
11957;SDS011;6039;52.576;13.348;2023-10-13T00:42:46;7.10;;;3.60;;
11957;SDS011;6039;52.576;13.348;2023-10-13T00:47:53;5.97;;;4.20;;
11957;SDS011;6039;52.576;13.348;2023-10-13T00:53:04;7.30;;;4.43;;
11957;SDS011;6039;52.576;13.348;2023-10-13T00:58:08;6.10;;;3.83;;
11957;SDS011;6039;52.576;13.348;2023-10-13T01:03:12;6.30;;;3.73;;
11957;SDS011;6039;52.576;13.348;2023-10-13T01:08:19;8.77;;;4.07;;
11957;SDS011;6039;52.576;13.348;2023-10-13T01:13:38;7.43;;;4.23;;
11957;SDS011;6039;52.576;13.348;2023-10-13T01:18:42;6.10;;;3.33;;
11957;SDS011;6039;52.576;13.348;2023-10-13T01:23:52;6.03;;;3.17;;
11957;SDS011;6039;52.576;13.348;2023-10-13T01:28:56;6.13;;;3.17;;
11957;SDS011;6039;52.576;13.348;2023-10-13T01:34:00;8.93;;;3.33;;
11957;SDS011;6039;52.576;13.348;2023-10-13T01:39:07;6.73;;;3.03;;
11957;SDS011;6039;52.576;13.348;2023-10-13T01:44:16;5.43;;;2.87;;
11957;SDS011;6039;52.576;13.348;2023-10-13T01:49:21;5.70;;;2.97;;
11957;SDS011;6039;52.576;13.348;2023-10-13T01:54:28;6.73;;;3.10;;
11957;SDS011;6039;52.576;13.348;2023-10-13T01:59:32;7.17;;;3.10;;
11957;SDS011;6039;52.576;13.348;2023-10-13T02:04:43;6.30;;;2.87;;
11957;SDS011;6039;52.576;13.348;2023-10-13T02:10:00;6.70;;;3.00;;
11957;SDS011;6039;52.576;13.348;2023-10-13T02:15:06;7.27;;;3.50;;
11957;SDS011;6039;52.576;13.348;2023-10-13T02:20:12;5.93;;;3.23;;
11957;SDS011;6039;52.576;13.348;2023-10-13T02:25:19;8.27;;;3.87;;
11957;SDS011;6039;52.576;13.348;2023-10-13T02:30:37;9.70;;;4.30;;
11957;SDS011;6039;52.576;13.348;2023-10-13T02:35:44;11.10;;;4.60;;
11957;SDS011;6039;52.576;13.348;2023-10-13T02:40:56;8.03;;;4.20;;
11957;SDS011;6039;52.576;13.348;2023-10-13T02:46:06;6.70;;;3.63;;
11957;SDS011;6039;52.576;13.348;2023-10-13T02:51:10;8.23;;;4.60;;
11957;SDS011;6039;52.576;13.348;2023-10-13T02:56:20;10.60;;;5.70;;
11957;SDS011;6039;52.576;13.348;2023-10-13T03:01:24;9.83;;;5.57;;
11957;SDS011;6039;52.576;13.348;2023-10-13T03:06:30;9.17;;;5.20;;
11957;SDS011;6039;52.576;13.348;2023-10-13T03:11:42;10.20;;;5.13;;
11957;SDS011;6039;52.576;13.348;2023-10-13T03:16:49;9.13;;;5.53;;
11957;SDS011;6039;52.576;13.348;2023-10-13T03:21:53;9.40;;;5.73;;
11957;SDS011;6039;52.576;13.348;2023-10-13T03:27:07;11.20;;;5.80;;
11957;SDS011;6039;52.576;13.348;2023-10-13T03:32:12;12.43;;;5.97;;
11957;SDS011;6039;52.576;13.348;2023-10-13T03:37:17;14.20;;;7.03;;
11957;SDS011;6039;52.576;13.348;2023-10-13T03:42:39;14.07;;;6.70;;
11957;SDS011;6039;52.576;13.348;2023-10-13T03:47:48;13.10;;;7.47;;
11957;SDS011;6039;52.576;13.348;2023-10-13T03:52:52;13.00;;;7.83;;
11957;SDS011;6039;52.576;13.348;2023-10-13T03:58:00;13.17;;;7.17;;
11957;SDS011;6039;52.576;13.348;2023-10-13T04:03:05;15.90;;;7.33;;
11957;SDS011;6039;52.576;13.348;2023-10-13T04:08:16;14.53;;;7.37;;
11957;SDS011;6039;52.576;13.348;2023-10-13T04:13:35;15.30;;;7.20;;
11957;SDS011;6039;52.576;13.348;2023-10-13T04:18:52;15.83;;;7.70;;
11957;SDS011;6039;52.576;13.348;2023-10-13T04:24:08;15.57;;;8.00;;
11957;SDS011;6039;52.576;13.348;2023-10-13T04:29:41;16.33;;;9.07;;
11957;SDS011;6039;52.576;13.348;2023-10-13T04:34:51;13.43;;;8.70;;
11957;SDS011;6039;52.576;13.348;2023-10-13T04:39:58;13.47;;;9.00;;
11957;SDS011;6039;52.576;13.348;2023-10-13T04:45:12;19.77;;;9.70;;
11957;SDS011;6039;52.576;13.348;2023-10-13T04:50:38;15.87;;;9.17;;
11957;SDS011;6039;52.576;13.348;2023-10-13T04:55:48;15.80;;;9.30;;
11957;SDS011;6039;52.576;13.348;2023-10-13T05:01:10;17.60;;;9.13;;
11957;SDS011;6039;52.576;13.348;2023-10-13T05:06:46;16.60;;;9.00;;
11957;SDS011;6039;52.576;13.348;2023-10-13T05:12:11;15.40;;;9.17;;
11957;SDS011;6039;52.576;13.348;2023-10-13T05:17:30;17.07;;;9.43;;
11957;SDS011;6039;52.576;13.348;2023-10-13T05:22:52;17.17;;;9.40;;
11957;SDS011;6039;52.576;13.348;2023-10-13T05:28:09;16.57;;;9.10;;
11957;SDS011;6039;52.576;13.348;2023-10-13T05:33:28;15.83;;;9.67;;
11957;SDS011;6039;52.576;13.348;2023-10-13T05:38:44;14.83;;;9.70;;
11957;SDS011;6039;52.576;13.348;2023-10-13T05:44:01;17.90;;;9.93;;
11957;SDS011;6039;52.576;13.348;2023-10-13T05:49:20;14.10;;;9.33;;
11957;SDS011;6039;52.576;13.348;2023-10-13T05:54:37;14.23;;;9.40;;
11957;SDS011;6039;52.576;13.348;2023-10-13T05:59:53;20.80;;;9.87;;
11957;SDS011;6039;52.576;13.348;2023-10-13T06:05:12;16.17;;;9.67;;
11957;SDS011;6039;52.576;13.348;2023-10-13T06:10:29;18.13;;;9.77;;
11957;SDS011;6039;52.576;13.348;2023-10-13T06:15:45;14.00;;;8.53;;
11957;SDS011;6039;52.576;13.348;2023-10-13T06:21:04;15.33;;;9.70;;
11957;SDS011;6039;52.576;13.348;2023-10-13T06:26:29;14.87;;;9.23;;
11957;SDS011;6039;52.576;13.348;2023-10-13T06:31:46;16.27;;;10.00;;
11957;SDS011;6039;52.576;13.348;2023-10-13T06:36:52;14.73;;;9.03;;
11957;SDS011;6039;52.576;13.348;2023-10-13T06:41:56;14.33;;;8.70;;
11957;SDS011;6039;52.576;13.348;2023-10-13T06:47:00;11.63;;;8.13;;
11957;SDS011;6039;52.576;13.348;2023-10-13T06:52:08;14.43;;;8.73;;
11957;SDS011;6039;52.576;13.348;2023-10-13T06:57:12;12.80;;;7.93;;
11957;SDS011;6039;52.576;13.348;2023-10-13T07:02:20;14.57;;;8.13;;
11957;SDS011;6039;52.576;13.348;2023-10-13T07:07:36;12.73;;;7.13;;
11957;SDS011;6039;52.576;13.348;2023-10-13T07:12:42;11.97;;;7.50;;
11957;SDS011;6039;52.576;13.348;2023-10-13T07:17:49;17.90;;;7.63;;
11957;SDS011;6039;52.576;13.348;2023-10-13T07:22:58;15.77;;;6.87;;
11957;SDS011;6039;52.576;13.348;2023-10-13T07:28:06;12.27;;;6.93;;
11957;SDS011;6039;52.576;13.348;2023-10-13T07:33:10;10.77;;;7.03;;
11957;SDS011;6039;52.576;13.348;2023-10-13T07:38:17;14.10;;;6.90;;
11957;SDS011;6039;52.576;13.348;2023-10-13T07:43:22;10.23;;;6.03;;
11957;SDS011;6039;52.576;13.348;2023-10-13T07:48:27;10.73;;;6.77;;
11957;SDS011;6039;52.576;13.348;2023-10-13T07:53:34;10.47;;;6.37;;
11957;SDS011;6039;52.576;13.348;2023-10-13T07:58:40;9.00;;;5.60;;
11957;SDS011;6039;52.576;13.348;2023-10-13T08:03:52;9.87;;;5.97;;
11957;SDS011;6039;52.576;13.348;2023-10-13T08:09:14;8.03;;;5.43;;
11957;SDS011;6039;52.576;13.348;2023-10-13T08:14:31;10.03;;;5.90;;
11957;SDS011;6039;52.576;13.348;2023-10-13T08:19:38;10.43;;;5.73;;
11957;SDS011;6039;52.576;13.348;2023-10-13T08:24:48;9.77;;;5.97;;
11957;SDS011;6039;52.576;13.348;2023-10-13T08:30:15;8.10;;;5.40;;
11957;SDS011;6039;52.576;13.348;2023-10-13T08:35:34;7.97;;;5.63;;
11957;SDS011;6039;52.576;13.348;2023-10-13T08:40:40;7.97;;;5.87;;
11957;SDS011;6039;52.576;13.348;2023-10-13T08:45:59;7.30;;;5.20;;
11957;SDS011;6039;52.576;13.348;2023-10-13T08:51:06;6.47;;;4.93;;
11957;SDS011;6039;52.576;13.348;2023-10-13T08:56:33;8.93;;;4.87;;
11957;SDS011;6039;52.576;13.348;2023-10-13T09:01:47;7.07;;;5.03;;
11957;SDS011;6039;52.576;13.348;2023-10-13T09:07:11;9.23;;;5.17;;
11957;SDS011;6039;52.576;13.348;2023-10-13T09:12:27;6.83;;;4.93;;
11957;SDS011;6039;52.576;13.348;2023-10-13T09:18:00;7.10;;;5.23;;
11957;SDS011;6039;52.576;13.348;2023-10-13T09:23:15;6.93;;;5.13;;
11957;SDS011;6039;52.576;13.348;2023-10-13T09:28:27;8.57;;;5.13;;
11957;SDS011;6039;52.576;13.348;2023-10-13T09:33:32;6.23;;;4.77;;
11957;SDS011;6039;52.576;13.348;2023-10-13T09:38:36;7.73;;;5.00;;
11957;SDS011;6039;52.576;13.348;2023-10-13T09:43:43;9.70;;;5.33;;
11957;SDS011;6039;52.576;13.348;2023-10-13T09:48:51;9.10;;;5.00;;
11957;SDS011;6039;52.576;13.348;2023-10-13T09:54:09;7.73;;;4.63;;
11957;SDS011;6039;52.576;13.348;2023-10-13T09:59:20;8.97;;;4.87;;
11957;SDS011;6039;52.576;13.348;2023-10-13T10:04:25;7.87;;;5.03;;
11957;SDS011;6039;52.576;13.348;2023-10-13T10:09:30;8.20;;;5.37;;
11957;SDS011;6039;52.576;13.348;2023-10-13T10:14:46;7.47;;;4.83;;
11957;SDS011;6039;52.576;13.348;2023-10-13T10:20:04;6.73;;;4.73;;
11957;SDS011;6039;52.576;13.348;2023-10-13T10:25:28;9.03;;;5.80;;
11957;SDS011;6039;52.576;13.348;2023-10-13T10:30:37;6.60;;;4.63;;
11957;SDS011;6039;52.576;13.348;2023-10-13T10:35:42;8.43;;;5.13;;
11957;SDS011;6039;52.576;13.348;2023-10-13T10:40:51;6.37;;;4.90;;
11957;SDS011;6039;52.576;13.348;2023-10-13T10:46:03;9.93;;;5.17;;
11957;SDS011;6039;52.576;13.348;2023-10-13T10:51:08;6.90;;;4.63;;
11957;SDS011;6039;52.576;13.348;2023-10-13T10:56:22;6.43;;;5.17;;
11957;SDS011;6039;52.576;13.348;2023-10-13T11:01:43;8.27;;;5.00;;
11957;SDS011;6039;52.576;13.348;2023-10-13T11:06:51;7.60;;;5.33;;
11957;SDS011;6039;52.576;13.348;2023-10-13T11:12:08;7.03;;;4.37;;
11957;SDS011;6039;52.576;13.348;2023-10-13T11:17:26;7.83;;;4.87;;
11957;SDS011;6039;52.576;13.348;2023-10-13T11:22:39;7.83;;;4.90;;
11957;SDS011;6039;52.576;13.348;2023-10-13T11:27:47;7.93;;;5.23;;
11957;SDS011;6039;52.576;13.348;2023-10-13T11:33:09;7.87;;;5.10;;
11957;SDS011;6039;52.576;13.348;2023-10-13T11:38:18;7.90;;;4.80;;
11957;SDS011;6039;52.576;13.348;2023-10-13T11:43:27;6.37;;;4.67;;
11957;SDS011;6039;52.576;13.348;2023-10-13T11:48:38;9.33;;;4.60;;
11957;SDS011;6039;52.576;13.348;2023-10-13T11:53:43;7.13;;;5.00;;
11957;SDS011;6039;52.576;13.348;2023-10-13T11:58:52;8.93;;;5.07;;
11957;SDS011;6039;52.576;13.348;2023-10-13T12:04:04;6.57;;;4.97;;
11957;SDS011;6039;52.576;13.348;2023-10-13T12:09:21;6.77;;;4.83;;
11957;SDS011;6039;52.576;13.348;2023-10-13T12:14:41;7.60;;;5.03;;
11957;SDS011;6039;52.576;13.348;2023-10-13T12:19:55;11.93;;;4.73;;
11957;SDS011;6039;52.576;13.348;2023-10-13T12:24:59;7.77;;;4.60;;
11957;SDS011;6039;52.576;13.348;2023-10-13T12:30:05;10.17;;;4.30;;
11957;SDS011;6039;52.576;13.348;2023-10-13T12:35:16;5.93;;;4.43;;
11957;SDS011;6039;52.576;13.348;2023-10-13T12:40:27;6.57;;;5.07;;
11957;SDS011;6039;52.576;13.348;2023-10-13T12:45:44;8.00;;;4.77;;
11957;SDS011;6039;52.576;13.348;2023-10-13T12:51:04;6.73;;;4.67;;
11957;SDS011;6039;52.576;13.348;2023-10-13T12:56:20;7.67;;;5.10;;
11957;SDS011;6039;52.576;13.348;2023-10-13T13:01:25;10.47;;;4.40;;
11957;SDS011;6039;52.576;13.348;2023-10-13T13:06:35;8.10;;;4.37;;
11957;SDS011;6039;52.576;13.348;2023-10-13T13:11:40;8.07;;;5.17;;
11957;SDS011;6039;52.576;13.348;2023-10-13T13:16:48;7.33;;;4.57;;
11957;SDS011;6039;52.576;13.348;2023-10-13T13:21:55;9.17;;;4.07;;
11957;SDS011;6039;52.576;13.348;2023-10-13T13:26:59;9.03;;;4.90;;
11957;SDS011;6039;52.576;13.348;2023-10-13T13:32:05;6.97;;;4.10;;
11957;SDS011;6039;52.576;13.348;2023-10-13T13:37:20;11.47;;;4.33;;
11957;SDS011;6039;52.576;13.348;2023-10-13T13:42:27;5.90;;;4.00;;
11957;SDS011;6039;52.576;13.348;2023-10-13T13:47:36;9.00;;;4.23;;
11957;SDS011;6039;52.576;13.348;2023-10-13T13:52:43;9.27;;;4.30;;
11957;SDS011;6039;52.576;13.348;2023-10-13T13:57:48;9.87;;;4.07;;
11957;SDS011;6039;52.576;13.348;2023-10-13T14:02:53;12.37;;;4.63;;
11957;SDS011;6039;52.576;13.348;2023-10-13T14:08:00;6.57;;;4.63;;
11957;SDS011;6039;52.576;13.348;2023-10-13T14:13:11;7.63;;;4.20;;
11957;SDS011;6039;52.576;13.348;2023-10-13T14:18:16;6.67;;;4.40;;
11957;SDS011;6039;52.576;13.348;2023-10-13T14:23:22;7.73;;;4.30;;
11957;SDS011;6039;52.576;13.348;2023-10-13T14:28:27;10.03;;;4.00;;
11957;SDS011;6039;52.576;13.348;2023-10-13T14:33:35;10.77;;;4.00;;
11957;SDS011;6039;52.576;13.348;2023-10-13T14:38:41;13.33;;;4.23;;
11957;SDS011;6039;52.576;13.348;2023-10-13T14:43:49;9.87;;;4.50;;
11957;SDS011;6039;52.576;13.348;2023-10-13T14:48:56;9.80;;;4.17;;
11957;SDS011;6039;52.576;13.348;2023-10-13T14:54:05;7.17;;;4.50;;
11957;SDS011;6039;52.576;13.348;2023-10-13T14:59:09;11.57;;;4.37;;
11957;SDS011;6039;52.576;13.348;2023-10-13T15:04:17;15.77;;;5.03;;
11957;SDS011;6039;52.576;13.348;2023-10-13T15:09:27;8.40;;;4.33;;
11957;SDS011;6039;52.576;13.348;2023-10-13T15:14:34;6.47;;;4.00;;
11957;SDS011;6039;52.576;13.348;2023-10-13T15:19:39;10.47;;;4.33;;
11957;SDS011;6039;52.576;13.348;2023-10-13T15:24:45;8.43;;;4.43;;
11957;SDS011;6039;52.576;13.348;2023-10-13T15:30:01;7.77;;;4.33;;
11957;SDS011;6039;52.576;13.348;2023-10-13T15:35:11;7.23;;;4.53;;
11957;SDS011;6039;52.576;13.348;2023-10-13T15:40:18;7.20;;;4.67;;
11957;SDS011;6039;52.576;13.348;2023-10-13T15:45:24;8.17;;;4.40;;
11957;SDS011;6039;52.576;13.348;2023-10-13T15:50:39;6.47;;;4.17;;
11957;SDS011;6039;52.576;13.348;2023-10-13T15:55:45;9.27;;;4.30;;
11957;SDS011;6039;52.576;13.348;2023-10-13T16:00:52;10.47;;;4.60;;
11957;SDS011;6039;52.576;13.348;2023-10-13T16:05:56;8.30;;;4.20;;
11957;SDS011;6039;52.576;13.348;2023-10-13T16:11:07;8.77;;;4.90;;
11957;SDS011;6039;52.576;13.348;2023-10-13T16:16:16;10.13;;;4.30;;
11957;SDS011;6039;52.576;13.348;2023-10-13T16:21:22;10.27;;;4.17;;
11957;SDS011;6039;52.576;13.348;2023-10-13T16:26:29;10.53;;;3.87;;
11957;SDS011;6039;52.576;13.348;2023-10-13T16:31:33;8.07;;;4.37;;
11957;SDS011;6039;52.576;13.348;2023-10-13T16:36:37;9.00;;;4.47;;
11957;SDS011;6039;52.576;13.348;2023-10-13T16:41:46;12.57;;;4.73;;
11957;SDS011;6039;52.576;13.348;2023-10-13T16:46:52;6.80;;;4.37;;
11957;SDS011;6039;52.576;13.348;2023-10-13T16:52:00;8.63;;;4.47;;
11957;SDS011;6039;52.576;13.348;2023-10-13T16:57:06;7.93;;;4.37;;
11957;SDS011;6039;52.576;13.348;2023-10-13T17:02:11;7.90;;;4.47;;
11957;SDS011;6039;52.576;13.348;2023-10-13T17:07:15;10.43;;;4.27;;
11957;SDS011;6039;52.576;13.348;2023-10-13T17:12:22;11.87;;;4.80;;
11957;SDS011;6039;52.576;13.348;2023-10-13T17:17:26;7.03;;;4.40;;
11957;SDS011;6039;52.576;13.348;2023-10-13T17:22:31;7.23;;;4.00;;
11957;SDS011;6039;52.576;13.348;2023-10-13T17:27:39;9.07;;;3.93;;
11957;SDS011;6039;52.576;13.348;2023-10-13T17:32:45;6.37;;;3.97;;
11957;SDS011;6039;52.576;13.348;2023-10-13T17:37:49;7.43;;;4.20;;
11957;SDS011;6039;52.576;13.348;2023-10-13T17:42:56;11.83;;;4.50;;
11957;SDS011;6039;52.576;13.348;2023-10-13T17:48:00;8.07;;;4.47;;
11957;SDS011;6039;52.576;13.348;2023-10-13T17:53:06;11.63;;;4.40;;
11957;SDS011;6039;52.576;13.348;2023-10-13T17:58:12;10.20;;;4.37;;
11957;SDS011;6039;52.576;13.348;2023-10-13T18:03:16;7.73;;;3.93;;
11957;SDS011;6039;52.576;13.348;2023-10-13T18:08:20;9.43;;;4.37;;
11957;SDS011;6039;52.576;13.348;2023-10-13T18:13:30;8.30;;;4.80;;
11957;SDS011;6039;52.576;13.348;2023-10-13T18:18:34;6.43;;;4.40;;
11957;SDS011;6039;52.576;13.348;2023-10-13T18:23:39;9.20;;;4.53;;
11957;SDS011;6039;52.576;13.348;2023-10-13T18:28:46;11.27;;;4.50;;
11957;SDS011;6039;52.576;13.348;2023-10-13T18:33:50;8.47;;;4.50;;
11957;SDS011;6039;52.576;13.348;2023-10-13T18:38:57;8.17;;;3.90;;
11957;SDS011;6039;52.576;13.348;2023-10-13T18:44:09;11.20;;;4.70;;
11957;SDS011;6039;52.576;13.348;2023-10-13T18:49:13;6.27;;;3.83;;
11957;SDS011;6039;52.576;13.348;2023-10-13T18:54:17;10.37;;;4.53;;
11957;SDS011;6039;52.576;13.348;2023-10-13T18:59:25;7.13;;;4.20;;
11957;SDS011;6039;52.576;13.348;2023-10-13T19:04:29;6.03;;;4.20;;
11957;SDS011;6039;52.576;13.348;2023-10-13T19:09:35;8.07;;;4.00;;
11957;SDS011;6039;52.576;13.348;2023-10-13T19:14:44;6.67;;;4.50;;
11957;SDS011;6039;52.576;13.348;2023-10-13T19:19:48;7.47;;;4.27;;
11957;SDS011;6039;52.576;13.348;2023-10-13T19:24:52;7.40;;;4.40;;
11957;SDS011;6039;52.576;13.348;2023-10-13T19:29:59;7.23;;;4.37;;
11957;SDS011;6039;52.576;13.348;2023-10-13T19:35:07;9.57;;;4.90;;
11957;SDS011;6039;52.576;13.348;2023-10-13T19:40:11;7.87;;;4.17;;
11957;SDS011;6039;52.576;13.348;2023-10-13T19:45:18;5.40;;;4.13;;
11957;SDS011;6039;52.576;13.348;2023-10-13T19:50:22;8.43;;;4.27;;
11957;SDS011;6039;52.576;13.348;2023-10-13T19:55:26;11.70;;;4.53;;
11957;SDS011;6039;52.576;13.348;2023-10-13T20:00:33;6.77;;;4.00;;
11957;SDS011;6039;52.576;13.348;2023-10-13T20:05:37;7.67;;;4.50;;
11957;SDS011;6039;52.576;13.348;2023-10-13T20:10:43;11.10;;;4.20;;
11957;SDS011;6039;52.576;13.348;2023-10-13T20:15:49;5.77;;;3.67;;
11957;SDS011;6039;52.576;13.348;2023-10-13T20:20:53;5.97;;;3.80;;
11957;SDS011;6039;52.576;13.348;2023-10-13T20:26:00;7.37;;;4.00;;
11957;SDS011;6039;52.576;13.348;2023-10-13T20:31:06;8.33;;;4.60;;
11957;SDS011;6039;52.576;13.348;2023-10-13T20:36:12;7.17;;;4.40;;
11957;SDS011;6039;52.576;13.348;2023-10-13T20:41:18;7.43;;;4.30;;
11957;SDS011;6039;52.576;13.348;2023-10-13T20:46:25;10.63;;;7.47;;
11957;SDS011;6039;52.576;13.348;2023-10-13T20:51:29;9.10;;;4.83;;
11957;SDS011;6039;52.576;13.348;2023-10-13T20:56:34;7.33;;;4.27;;
11957;SDS011;6039;52.576;13.348;2023-10-13T21:01:40;6.13;;;4.03;;
11957;SDS011;6039;52.576;13.348;2023-10-13T21:06:44;8.00;;;4.60;;
11957;SDS011;6039;52.576;13.348;2023-10-13T21:11:49;7.23;;;4.37;;
11957;SDS011;6039;52.576;13.348;2023-10-13T21:16:56;6.47;;;4.63;;
11957;SDS011;6039;52.576;13.348;2023-10-13T21:22:00;8.13;;;4.37;;
11957;SDS011;6039;52.576;13.348;2023-10-13T21:27:08;8.80;;;4.20;;
11957;SDS011;6039;52.576;13.348;2023-10-13T21:32:14;8.33;;;4.30;;
11957;SDS011;6039;52.576;13.348;2023-10-13T21:37:18;7.37;;;4.23;;
11957;SDS011;6039;52.576;13.348;2023-10-13T21:42:24;10.30;;;4.77;;
11957;SDS011;6039;52.576;13.348;2023-10-13T21:47:33;8.57;;;4.47;;
11957;SDS011;6039;52.576;13.348;2023-10-13T21:52:37;6.93;;;4.40;;
11957;SDS011;6039;52.576;13.348;2023-10-13T21:57:43;8.57;;;4.30;;
11957;SDS011;6039;52.576;13.348;2023-10-13T22:02:52;8.13;;;4.13;;
11957;SDS011;6039;52.576;13.348;2023-10-13T22:08:00;10.50;;;5.07;;
11957;SDS011;6039;52.576;13.348;2023-10-13T22:13:04;15.33;;;8.07;;
11957;SDS011;6039;52.576;13.348;2023-10-13T22:18:11;5.97;;;4.17;;
11957;SDS011;6039;52.576;13.348;2023-10-13T22:23:16;8.17;;;4.37;;
11957;SDS011;6039;52.576;13.348;2023-10-13T22:28:20;6.60;;;4.00;;
11957;SDS011;6039;52.576;13.348;2023-10-13T22:33:27;12.83;;;4.63;;
11957;SDS011;6039;52.576;13.348;2023-10-13T22:38:31;5.73;;;3.90;;
11957;SDS011;6039;52.576;13.348;2023-10-13T22:43:35;9.77;;;4.23;;
11957;SDS011;6039;52.576;13.348;2023-10-13T22:48:42;7.37;;;4.27;;
11957;SDS011;6039;52.576;13.348;2023-10-13T22:53:46;6.23;;;4.00;;
11957;SDS011;6039;52.576;13.348;2023-10-13T22:58:50;6.70;;;4.03;;
11957;SDS011;6039;52.576;13.348;2023-10-13T23:03:57;6.83;;;4.17;;
11957;SDS011;6039;52.576;13.348;2023-10-13T23:09:02;7.20;;;4.63;;
11957;SDS011;6039;52.576;13.348;2023-10-13T23:14:12;7.73;;;4.07;;
11957;SDS011;6039;52.576;13.348;2023-10-13T23:19:21;8.07;;;4.00;;
11957;SDS011;6039;52.576;13.348;2023-10-13T23:24:25;6.53;;;4.13;;
11957;SDS011;6039;52.576;13.348;2023-10-13T23:29:29;10.03;;;4.30;;
11957;SDS011;6039;52.576;13.348;2023-10-13T23:34:38;7.80;;;4.33;;
11957;SDS011;6039;52.576;13.348;2023-10-13T23:39:42;7.43;;;4.57;;
11957;SDS011;6039;52.576;13.348;2023-10-13T23:44:46;8.97;;;4.70;;
11957;SDS011;6039;52.576;13.348;2023-10-13T23:49:53;6.53;;;4.17;;
11957;SDS011;6039;52.576;13.348;2023-10-13T23:54:58;8.63;;;4.03;;
